Time;durP1;ratioP1;P1;durP2;ratioP2;P2;SDS_P1;SDS_P2;PMS_P1;PMS_P2;Temp;Humidity;BMP_temperature;BMP_pressure;BME280_temperature;BME280_humidity;BME280_pressure;Samples;Min_cycle;Max_cycle;Signal;HPM_P1;HPM_P2
2023/08/14 00:01:51;;;;;;;1.83;1.10;;;14.00;99.90;;;;;;5057203;28;20057;-70
2023/08/14 00:04:17;;;;;;;2.03;1.27;;;14.00;99.90;;;;;;5057463;28;20056;-70
2023/08/14 00:06:42;;;;;;;2.17;1.15;;;14.10;99.90;;;;;;5057657;28;20128;-70
2023/08/14 00:09:08;;;;;;;2.22;1.38;;;14.00;99.90;;;;;;5056803;28;20414;-70
2023/08/14 00:11:34;;;;;;;1.90;1.10;;;14.00;99.90;;;;;;5039760;28;20051;-70
2023/08/14 00:14:00;;;;;;;3.35;1.45;;;14.00;99.90;;;;;;5056650;28;20055;-70
2023/08/14 00:16:26;;;;;;;1.67;1.00;;;13.90;99.90;;;;;;5056652;28;20041;-70
2023/08/14 00:18:51;;;;;;;8.60;1.40;;;13.90;99.90;;;;;;5057346;28;20067;-70
2023/08/14 00:21:17;;;;;;;14.10;1.58;;;13.80;99.90;;;;;;5056268;28;20458;-70
2023/08/14 00:23:43;;;;;;;1.33;0.80;;;13.70;99.90;;;;;;5057033;28;20052;-70
2023/08/14 00:26:12;;;;;;;3.50;1.30;;;13.70;99.90;;;;;;5038927;28;20080;-70
2023/08/14 00:28:37;;;;;;;3.47;1.20;;;13.70;99.90;;;;;;5055439;28;20521;-70
2023/08/14 00:31:03;;;;;;;3.47;1.20;;;13.70;99.90;;;;;;5057165;28;20072;-70
2023/08/14 00:33:29;;;;;;;1.60;0.80;;;13.70;99.90;;;;;;5038786;28;20098;-70
2023/08/14 00:35:54;;;;;;;2.10;1.40;;;13.70;99.90;;;;;;5056302;28;20045;-70
2023/08/14 00:38:20;;;;;;;2.15;1.40;;;13.70;99.90;;;;;;5055993;28;20561;-70
2023/08/14 00:40:46;;;;;;;2.50;1.30;;;13.80;99.90;;;;;;5056640;28;20136;-70
2023/08/14 00:43:12;;;;;;;2.67;1.35;;;13.80;99.90;;;;;;5056327;28;20420;-71
2023/08/14 00:45:38;;;;;;;5.07;1.40;;;13.80;99.90;;;;;;5056116;28;20045;-70
2023/08/14 00:48:05;;;;;;;2.38;1.50;;;13.80;99.90;;;;;;5038395;28;20091;-70
2023/08/14 00:50:30;;;;;;;3.40;1.67;;;13.80;99.90;;;;;;5038455;28;20095;-70
2023/08/14 00:52:59;;;;;;;2.30;1.60;;;13.80;99.90;;;;;;5038102;28;20076;-71
2023/08/14 00:55:28;;;;;;;2.22;1.33;;;13.80;99.90;;;;;;5038367;28;20375;-70
2023/08/14 00:57:55;;;;;;;2.42;1.75;;;13.80;99.90;;;;;;5055572;28;20044;-70
2023/08/14 01:00:21;;;;;;;2.85;1.75;;;13.80;99.90;;;;;;5056215;28;20500;-70
2023/08/14 01:02:49;;;;;;;3.13;1.92;;;13.80;99.90;;;;;;5055824;28;20045;-70
2023/08/14 01:05:15;;;;;;;2.50;1.60;;;13.80;99.90;;;;;;5055757;28;20229;-70
2023/08/14 01:07:40;;;;;;;2.47;1.58;;;13.90;99.90;;;;;;5055731;28;20070;-70
2023/08/14 01:10:08;;;;;;;2.10;1.48;;;13.90;99.90;;;;;;5056120;28;20355;-70
2023/08/14 01:13:06;;;;;;;4.05;1.85;;;14.00;99.90;;;;;;5038052;28;20401;-70
2023/08/14 01:15:38;;;;;;;2.65;1.90;;;14.00;99.90;;;;;;5038383;28;20056;-70
2023/08/14 01:18:04;;;;;;;3.53;1.80;;;14.00;99.90;;;;;;5038009;28;20057;-70
2023/08/14 01:20:35;;;;;;;3.88;2.10;;;14.00;99.90;;;;;;5038171;28;20053;-70
2023/08/14 01:23:33;;;;;;;3.22;2.10;;;14.00;99.90;;;;;;5056033;28;20041;-70
2023/08/14 01:26:00;;;;;;;2.72;2.17;;;14.00;99.90;;;;;;5055423;28;20053;-71
2023/08/14 01:28:28;;;;;;;3.55;2.17;;;14.00;99.90;;;;;;5055378;28;20092;-71
2023/08/14 01:30:54;;;;;;;2.55;1.88;;;14.10;99.90;;;;;;5055831;28;20120;-71
2023/08/14 01:33:20;;;;;;;3.15;2.00;;;14.20;99.90;;;;;;5055260;28;20053;-71
2023/08/14 01:35:56;;;;;;;3.55;2.20;;;14.20;99.90;;;;;;5037573;28;20056;-71
2023/08/14 01:38:34;;;;;;;3.67;2.30;;;14.20;99.90;;;;;;5055239;28;20080;-71
2023/08/14 01:41:09;;;;;;;3.38;1.90;;;14.20;99.90;;;;;;5055399;28;20390;-71
2023/08/14 01:43:48;;;;;;;4.93;2.30;;;14.10;99.90;;;;;;5037824;28;20158;-71
2023/08/14 01:46:15;;;;;;;2.95;2.20;;;14.20;99.90;;;;;;5055502;28;20049;-71
2023/08/14 01:48:42;;;;;;;3.92;2.05;;;14.10;99.90;;;;;;5036983;28;20087;-71
2023/08/14 01:51:10;;;;;;;2.80;2.15;;;14.20;99.90;;;;;;5055470;28;20048;-71
2023/08/14 01:53:36;;;;;;;4.78;2.15;;;14.20;99.90;;;;;;5054832;28;20458;-73
2023/08/14 01:56:02;;;;;;;3.22;2.13;;;14.20;99.90;;;;;;5054795;28;20080;-74
2023/08/14 01:58:29;;;;;;;6.78;3.70;;;14.20;99.90;;;;;;5037179;28;20063;-71
2023/08/14 02:00:55;;;;;;;7.05;4.10;;;14.30;99.90;;;;;;5054653;28;20059;-71
2023/08/14 02:03:21;;;;;;;5.90;3.83;;;14.40;99.90;;;;;;5036914;28;20405;-71
2023/08/14 02:05:46;;;;;;;5.93;3.83;;;14.50;99.90;;;;;;5054563;28;20049;-71
2023/08/14 02:08:12;;;;;;;6.10;4.20;;;14.50;99.90;;;;;;5053833;28;20132;-71
2023/08/14 02:10:38;;;;;;;7.32;4.13;;;14.60;99.90;;;;;;5054490;28;20041;-71
2023/08/14 02:13:03;;;;;;;6.53;4.18;;;14.70;99.90;;;;;;5054458;28;20048;-71
2023/08/14 02:15:29;;;;;;;6.75;4.80;;;14.70;99.90;;;;;;5054438;28;20045;-71
2023/08/14 02:17:55;;;;;;;5.28;3.20;;;14.70;99.90;;;;;;5054359;28;20056;-71
2023/08/14 02:20:20;;;;;;;4.22;3.10;;;14.70;99.90;;;;;;5037026;28;20047;-71
2023/08/14 02:22:47;;;;;;;4.68;3.65;;;14.70;99.90;;;;;;5054817;28;20385;-71
2023/08/14 02:25:12;;;;;;;5.55;3.72;;;14.70;99.90;;;;;;5054919;28;20056;-71
2023/08/14 02:27:38;;;;;;;5.88;3.28;;;14.70;99.90;;;;;;5036654;28;20425;-71
2023/08/14 02:30:04;;;;;;;6.25;3.42;;;14.70;99.90;;;;;;5054824;28;20144;-71
2023/08/14 02:32:30;;;;;;;5.28;3.50;;;14.70;99.90;;;;;;5054101;28;20103;-72
2023/08/14 02:34:56;;;;;;;5.47;3.38;;;14.70;99.90;;;;;;5036091;28;20049;-72
2023/08/14 02:37:22;;;;;;;4.65;3.78;;;14.70;99.90;;;;;;5054101;28;20124;-72
2023/08/14 02:39:47;;;;;;;6.78;4.80;;;14.70;99.90;;;;;;5054540;28;20041;-72
2023/08/14 02:42:18;;;;;;;7.10;4.80;;;14.70;99.90;;;;;;5052809;28;20123;-72
2023/08/14 02:44:44;;;;;;;5.65;3.55;;;14.70;99.90;;;;;;5053920;28;20129;-72
2023/08/14 02:47:10;;;;;;;5.20;3.40;;;14.70;99.90;;;;;;5053521;28;20136;-72
2023/08/14 02:49:35;;;;;;;5.82;3.55;;;14.70;99.90;;;;;;5054598;28;20094;-72
2023/08/14 02:52:01;;;;;;;4.97;3.17;;;14.70;99.90;;;;;;5053778;28;20041;-72
2023/08/14 02:54:27;;;;;;;6.15;4.05;;;14.70;99.90;;;;;;5054543;28;20474;-72
2023/08/14 02:56:53;;;;;;;7.57;4.68;;;14.60;99.90;;;;;;5053764;28;20052;-72
2023/08/14 02:59:19;;;;;;;6.70;4.78;;;14.60;99.90;;;;;;5053619;28;20048;-72
2023/08/14 03:01:45;;;;;;;8.00;4.97;;;14.60;99.90;;;;;;5053457;28;20102;-72
2023/08/14 03:04:10;;;;;;;9.05;5.10;;;14.60;99.90;;;;;;5054036;28;20132;-72
2023/08/14 03:06:36;;;;;;;5.10;3.78;;;14.70;99.90;;;;;;5053685;28;20053;-72
2023/08/14 03:09:03;;;;;;;7.93;4.40;;;14.60;99.90;;;;;;5036377;28;20051;-71
2023/08/14 03:11:28;;;;;;;6.65;4.38;;;14.60;99.90;;;;;;5053547;28;20043;-72
2023/08/14 03:13:54;;;;;;;6.43;4.28;;;14.60;99.90;;;;;;5053512;28;20041;-72
2023/08/14 03:16:20;;;;;;;6.88;3.95;;;14.60;99.90;;;;;;5053525;28;20512;-72
2023/08/14 03:18:46;;;;;;;9.30;5.13;;;14.50;99.90;;;;;;5036246;28;20045;-72
2023/08/14 03:21:11;;;;;;;7.80;4.57;;;14.50;99.90;;;;;;5053546;28;20053;-72
2023/08/14 03:23:37;;;;;;;5.93;4.00;;;14.50;99.90;;;;;;5053415;28;20076;-72
2023/08/14 03:26:04;;;;;;;6.35;4.05;;;14.50;99.90;;;;;;5053230;28;20047;-72
2023/08/14 03:28:30;;;;;;;5.65;4.07;;;14.60;99.90;;;;;;5053676;28;20051;-72
2023/08/14 03:30:56;;;;;;;7.03;4.20;;;14.60;99.90;;;;;;5053069;28;20503;-72
2023/08/14 03:33:21;;;;;;;6.05;4.50;;;14.60;99.90;;;;;;5035654;28;20453;-72
2023/08/14 03:35:47;;;;;;;5.93;3.40;;;14.50;99.90;;;;;;5035502;28;20165;-72
2023/08/14 03:38:13;;;;;;;6.82;4.32;;;14.50;99.90;;;;;;5053770;28;20462;-72
2023/08/14 03:40:38;;;;;;;6.15;3.28;;;14.50;99.90;;;;;;5035523;28;20045;-72
2023/08/14 03:43:04;;;;;;;6.95;4.50;;;14.50;99.90;;;;;;5053204;28;20045;-72
2023/08/14 03:45:30;;;;;;;7.25;4.28;;;14.60;99.90;;;;;;5053200;28;20053;-72
2023/08/14 03:47:55;;;;;;;9.07;5.75;;;14.60;99.90;;;;;;5053769;28;20107;-72
2023/08/14 03:50:21;;;;;;;7.47;5.15;;;14.60;99.90;;;;;;5035435;28;20224;-72
2023/08/14 03:52:50;;;;;;;7.43;5.38;;;14.70;99.90;;;;;;5053119;28;20040;-72
2023/08/14 03:55:16;;;;;;;8.30;5.05;;;14.70;99.90;;;;;;5053626;28;20049;-72
2023/08/14 03:57:41;;;;;;;7.65;5.25;;;14.80;99.90;;;;;;5053128;28;20143;-71
2023/08/14 04:00:08;;;;;;;7.70;5.13;;;14.90;99.90;;;;;;5052860;28;20110;-72
2023/08/14 04:02:34;;;;;;;7.18;4.90;;;14.80;99.90;;;;;;5053497;28;20088;-72
2023/08/14 04:04:59;;;;;;;8.30;5.45;;;14.90;99.90;;;;;;5053191;28;20138;-72
2023/08/14 04:07:25;;;;;;;9.88;5.80;;;15.00;99.90;;;;;;5053011;28;20124;-72
2023/08/14 04:09:51;;;;;;;8.82;5.68;;;15.00;99.90;;;;;;5052424;28;20046;-72
2023/08/14 04:12:16;;;;;;;8.30;5.38;;;15.00;99.90;;;;;;5051416;28;20135;-72
2023/08/14 04:14:44;;;;;;;8.82;6.00;;;15.00;99.90;;;;;;5052755;28;20041;-72
2023/08/14 04:17:09;;;;;;;8.20;5.75;;;15.00;99.90;;;;;;5052732;28;20182;-72
2023/08/14 04:19:35;;;;;;;9.07;5.15;;;15.00;99.90;;;;;;5052345;28;20083;-72
2023/08/14 04:22:01;;;;;;;7.95;4.88;;;15.00;99.90;;;;;;5053339;28;20047;-72
2023/08/14 04:24:27;;;;;;;7.10;5.15;;;15.00;99.90;;;;;;5052791;28;20045;-72
2023/08/14 04:26:52;;;;;;;7.35;4.75;;;15.00;99.90;;;;;;5052869;28;20088;-72
2023/08/14 04:29:18;;;;;;;5.65;3.90;;;15.00;99.90;;;;;;5035067;28;20052;-72
2023/08/14 04:31:45;;;;;;;4.93;3.47;;;15.00;99.90;;;;;;5054210;28;20052;-72
2023/08/14 04:34:11;;;;;;;4.78;3.50;;;14.90;99.90;;;;;;5038768;28;20045;-72
2023/08/14 04:36:37;;;;;;;5.00;3.47;;;14.90;99.90;;;;;;5038540;28;20041;-72
2023/08/14 04:39:04;;;;;;;5.40;3.60;;;14.80;99.90;;;;;;5056284;28;20071;-72
2023/08/14 04:41:30;;;;;;;7.28;4.30;;;14.70;99.90;;;;;;5056206;28;20048;-72
2023/08/14 04:43:56;;;;;;;9.18;4.85;;;14.70;99.90;;;;;;5056267;28;20420;-72
2023/08/14 04:46:35;;;;;;;8.95;5.30;;;14.80;99.90;;;;;;5056192;28;20102;-72
2023/08/14 04:49:01;;;;;;;6.95;5.30;;;14.80;99.90;;;;;;5056682;28;20095;-72
2023/08/14 04:51:28;;;;;;;7.40;5.32;;;14.90;99.90;;;;;;5056105;28;20045;-72
2023/08/14 04:53:54;;;;;;;8.35;5.28;;;15.00;99.90;;;;;;5055960;28;20178;-72
2023/08/14 04:56:20;;;;;;;7.93;6.10;;;15.10;99.90;;;;;;5055828;28;20055;-72
2023/08/14 04:58:46;;;;;;;8.57;5.90;;;15.10;99.90;;;;;;5055613;28;20049;-72
2023/08/14 05:01:12;;;;;;;7.18;5.03;;;15.20;99.90;;;;;;5055634;28;20555;-72
2023/08/14 05:03:37;;;;;;;8.60;5.78;;;15.30;99.90;;;;;;5056142;28;20060;-71
2023/08/14 05:06:03;;;;;;;7.35;5.45;;;15.30;99.90;;;;;;5055783;28;20051;-72
2023/08/14 05:08:30;;;;;;;8.27;6.25;;;15.40;99.90;;;;;;5055682;28;20052;-72
2023/08/14 05:10:55;;;;;;;8.60;5.72;;;15.50;99.90;;;;;;5055555;28;20049;-72
2023/08/14 05:13:21;;;;;;;6.53;5.40;;;15.50;99.90;;;;;;5056609;28;20075;-72
2023/08/14 05:15:48;;;;;;;9.70;6.00;;;15.60;99.90;;;;;;5038120;28;20077;-71
2023/08/14 05:18:15;;;;;;;9.00;5.65;;;15.60;99.90;;;;;;5038453;28;20374;-72
2023/08/14 05:20:44;;;;;;;7.22;5.50;;;15.70;99.90;;;;;;5055406;28;20075;-71
2023/08/14 05:23:11;;;;;;;8.05;5.85;;;15.70;99.90;;;;;;5055432;28;20052;-72
2023/08/14 05:25:36;;;;;;;8.85;6.10;;;15.80;99.90;;;;;;5037543;28;20398;-72
2023/08/14 05:28:04;;;;;;;8.85;6.25;;;15.80;99.90;;;;;;5055370;28;20055;-72
2023/08/14 05:30:29;;;;;;;7.53;5.72;;;15.90;99.90;;;;;;5055502;28;20409;-72
2023/08/14 05:32:55;;;;;;;10.25;5.70;;;15.90;99.90;;;;;;5055254;28;20044;-72
2023/08/14 05:35:24;;;;;;;8.95;5.72;;;15.90;99.90;;;;;;5055145;28;20106;-72
2023/08/14 05:37:55;;;;;;;9.40;6.65;;;16.00;99.90;;;;;;5037560;28;20516;-72
2023/08/14 05:40:25;;;;;;;10.25;6.15;;;16.10;99.90;;;;;;5054845;28;20513;-71
2023/08/14 05:43:06;;;;;;;10.05;6.45;;;16.20;99.90;;;;;;5053965;28;20045;-71
2023/08/14 05:45:33;;;;;;;8.75;5.55;;;16.30;99.90;;;;;;5037410;28;20045;-72
2023/08/14 05:48:00;;;;;;;10.25;6.60;;;16.40;99.90;;;;;;5055458;28;20207;-72
2023/08/14 05:50:27;;;;;;;7.78;5.55;;;16.50;99.90;;;;;;5037409;28;20456;-72
2023/08/14 05:52:56;;;;;;;9.70;6.03;;;16.60;99.90;;;;;;5055118;28;20504;-71
2023/08/14 05:55:23;;;;;;;8.43;5.38;;;16.60;99.90;;;;;;5055019;28;20103;-72
2023/08/14 05:57:49;;;;;;;10.13;5.90;;;16.70;99.90;;;;;;5036956;28;20453;-72
2023/08/14 06:00:16;;;;;;;7.15;5.10;;;16.80;99.90;;;;;;5054593;28;20072;-72
2023/08/14 06:02:41;;;;;;;9.65;5.90;;;16.80;99.90;;;;;;5054590;28;20053;-72
2023/08/14 06:05:08;;;;;;;7.95;4.95;;;16.90;99.90;;;;;;5054476;28;20047;-72
2023/08/14 06:07:35;;;;;;;8.05;5.25;;;16.90;99.90;;;;;;5055222;28;20418;-72
2023/08/14 06:10:02;;;;;;;12.27;7.47;;;16.90;99.90;;;;;;5054509;28;20088;-72
2023/08/14 06:12:28;;;;;;;8.40;5.35;;;17.00;99.90;;;;;;5054433;28;20107;-71
2023/08/14 06:14:53;;;;;;;8.93;5.65;;;17.00;99.90;;;;;;5054500;28;20041;-71
2023/08/14 06:17:19;;;;;;;7.47;4.75;;;17.10;99.90;;;;;;5036925;28;20052;-70
2023/08/14 06:19:44;;;;;;;9.02;4.90;;;17.20;99.90;;;;;;5036673;28;20183;-70
2023/08/14 06:22:10;;;;;;;8.35;4.75;;;17.30;99.90;;;;;;5054256;28;20041;-70
2023/08/14 06:24:36;;;;;;;7.03;4.90;;;17.40;99.90;;;;;;5036826;28;20041;-70
2023/08/14 06:27:02;;;;;;;6.22;4.15;;;17.50;99.90;;;;;;5055182;28;20049;-70
2023/08/14 06:29:27;;;;;;;7.47;4.28;;;17.70;99.90;;;;;;5036936;28;20378;-71
2023/08/14 06:31:53;;;;;;;6.78;4.10;;;17.70;99.90;;;;;;5053780;28;20056;-71
2023/08/14 06:34:19;;;;;;;6.95;3.78;;;17.80;99.90;;;;;;5054155;28;20051;-71
2023/08/14 06:36:44;;;;;;;6.53;3.80;;;17.90;99.90;;;;;;5036541;28;20052;-71
2023/08/14 06:39:10;;;;;;;4.95;3.35;;;18.00;99.90;;;;;;5036382;28;20084;-71
2023/08/14 06:41:36;;;;;;;5.68;3.67;;;18.00;99.90;;;;;;5054251;28;20033;-70
2023/08/14 06:44:01;;;;;;;5.18;3.00;;;18.00;99.90;;;;;;5037010;28;20041;-70
2023/08/14 06:46:27;;;;;;;5.20;3.42;;;18.00;99.90;;;;;;5036669;28;20045;-70
2023/08/14 06:48:53;;;;;;;3.92;2.92;;;18.00;99.90;;;;;;5053832;28;20076;-70
2023/08/14 06:51:18;;;;;;;5.40;3.60;;;18.10;99.90;;;;;;5054324;28;20041;-70
2023/08/14 06:53:44;;;;;;;5.63;3.25;;;18.10;99.90;;;;;;5054141;28;20377;-70
2023/08/14 06:56:10;;;;;;;5.65;3.45;;;18.00;99.90;;;;;;5036304;28;20513;-71
2023/08/14 06:58:36;;;;;;;4.32;3.20;;;18.10;99.90;;;;;;5036839;28;20045;-70
2023/08/14 07:01:01;;;;;;;5.13;3.00;;;18.10;99.90;;;;;;5035442;28;20497;-70
2023/08/14 07:03:27;;;;;;;5.82;3.58;;;18.10;99.90;;;;;;5053709;28;20044;-70
2023/08/14 07:05:53;;;;;;;4.63;2.83;;;18.10;99.90;;;;;;5053591;28;20045;-71
2023/08/14 07:08:18;;;;;;;4.18;3.05;;;18.10;99.90;;;;;;5053625;28;20045;-71
2023/08/14 07:10:44;;;;;;;4.55;2.88;;;18.10;99.90;;;;;;5035219;28;20045;-70
2023/08/14 07:13:10;;;;;;;4.70;2.72;;;18.20;99.90;;;;;;5053592;28;20045;-70
2023/08/14 07:15:36;;;;;;;4.05;3.00;;;18.20;99.90;;;;;;5053113;28;20522;-70
2023/08/14 07:18:02;;;;;;;5.20;2.97;;;18.20;99.90;;;;;;5053386;28;20055;-71
2023/08/14 07:20:28;;;;;;;5.13;2.55;;;18.20;99.90;;;;;;5035726;28;20496;-71
2023/08/14 07:22:55;;;;;;;4.60;2.75;;;18.30;99.90;;;;;;5053222;28;20118;-71
2023/08/14 07:25:21;;;;;;;3.78;2.83;;;18.30;99.90;;;;;;5052369;28;20045;-70
2023/08/14 07:27:47;;;;;;;4.80;2.70;;;18.30;99.90;;;;;;5035524;28;20075;-72
2023/08/14 07:30:14;;;;;;;5.13;2.92;;;18.30;99.90;;;;;;5053239;28;20045;-72
2023/08/14 07:32:40;;;;;;;5.25;2.75;;;18.40;99.90;;;;;;5035912;28;20055;-70
2023/08/14 07:35:06;;;;;;;4.88;2.83;;;18.40;99.90;;;;;;5053294;28;20045;-70
2023/08/14 07:37:32;;;;;;;4.50;3.50;;;18.40;99.90;;;;;;5018702;28;20512;-71
2023/08/14 07:39:58;;;;;;;5.65;3.35;;;18.30;99.90;;;;;;5053197;28;20049;-71
2023/08/14 07:42:23;;;;;;;5.93;2.90;;;18.40;99.90;;;;;;5053156;28;20473;-71
2023/08/14 07:44:49;;;;;;;5.97;3.10;;;18.40;99.90;;;;;;5053242;28;20170;-71
2023/08/14 07:47:15;;;;;;;3.40;2.67;;;18.40;99.90;;;;;;5052701;28;20079;-71
2023/08/14 07:49:40;;;;;;;4.70;3.33;;;18.50;99.90;;;;;;5053037;28;20041;-70
2023/08/14 07:52:06;;;;;;;8.25;3.10;;;18.50;99.90;;;;;;5053085;28;20045;-70
2023/08/14 07:54:32;;;;;;;5.20;3.08;;;18.60;99.90;;;;;;5035342;28;20482;-69
2023/08/14 07:56:58;;;;;;;4.75;3.00;;;18.70;99.90;;;;;;5052993;28;20052;-71
2023/08/14 07:59:23;;;;;;;8.23;3.42;;;18.90;99.90;;;;;;5053240;28;20458;-71
2023/08/14 08:01:49;;;;;;;4.97;3.17;;;19.20;99.90;;;;;;5054062;28;20089;-70
2023/08/14 08:04:15;;;;;;;5.47;3.20;;;19.40;99.90;;;;;;5052929;28;20119;-70
2023/08/14 08:06:40;;;;;;;4.55;2.40;;;19.60;99.90;;;;;;5054132;28;20051;-69
2023/08/14 08:09:07;;;;;;;3.80;2.22;;;19.80;99.90;;;;;;5055833;28;20474;-69
2023/08/14 08:11:33;;;;;;;4.22;2.40;;;19.90;99.90;;;;;;5056684;28;20048;-69
2023/08/14 08:14:00;;;;;;;5.80;2.72;;;19.90;99.90;;;;;;5056723;28;20076;-69
2023/08/14 08:16:26;;;;;;;5.18;2.47;;;19.90;99.90;;;;;;5057323;28;20056;-69
2023/08/14 08:18:52;;;;;;;3.78;1.98;;;19.90;99.90;;;;;;5038932;28;20406;-70
2023/08/14 08:21:17;;;;;;;5.55;2.28;;;20.00;99.90;;;;;;5056840;28;20041;-69
2023/08/14 08:23:43;;;;;;;3.08;2.10;;;20.20;99.90;;;;;;5055709;28;20056;-69
2023/08/14 08:26:09;;;;;;;4.30;2.00;;;20.30;99.90;;;;;;5056608;28;20037;-69
2023/08/14 08:28:34;;;;;;;3.00;1.95;;;20.40;99.90;;;;;;5057088;28;20481;-69
2023/08/14 08:31:02;;;;;;;3.10;2.10;;;20.50;99.90;;;;;;5038828;28;20103;-70
2023/08/14 08:33:28;;;;;;;3.95;1.88;;;20.60;99.90;;;;;;5038662;28;20052;-70
2023/08/14 08:35:53;;;;;;;3.72;1.98;;;20.70;99.90;;;;;;5038887;28;20128;-70
2023/08/14 08:38:19;;;;;;;3.92;1.95;;;20.80;99.90;;;;;;5039110;28;20049;-69
2023/08/14 08:40:48;;;;;;;3.33;1.52;;;20.90;99.90;;;;;;5056333;28;20037;-69
2023/08/14 08:43:15;;;;;;;2.90;1.65;;;21.00;99.90;;;;;;5056152;28;20044;-71
2023/08/14 08:45:46;;;;;;;3.00;1.50;;;21.00;99.90;;;;;;5056183;28;20072;-69
2023/08/14 08:48:13;;;;;;;3.40;1.63;;;21.10;99.90;;;;;;5056819;28;20049;-70
2023/08/14 08:50:39;;;;;;;2.97;1.20;;;21.20;99.90;;;;;;5056219;28;20071;-69
2023/08/14 08:53:07;;;;;;;2.47;1.35;;;21.30;99.90;;;;;;5056030;28;20049;-70
2023/08/14 08:55:32;;;;;;;2.92;1.65;;;21.40;99.90;;;;;;5055696;28;20053;-70
2023/08/14 08:57:59;;;;;;;2.50;1.20;;;21.50;99.90;;;;;;5056028;28;20045;-69
2023/08/14 09:00:25;;;;;;;2.40;1.30;;;21.60;99.90;;;;;;5055813;28;20057;-70
2023/08/14 09:02:51;;;;;;;2.58;1.27;;;21.80;99.90;;;;;;5055792;28;20441;-71
2023/08/14 09:05:16;;;;;;;2.95;1.20;;;21.90;99.90;;;;;;5056163;28;20095;-70
2023/08/14 09:07:43;;;;;;;4.18;1.50;;;21.90;99.90;;;;;;5056350;28;20425;-70
2023/08/14 09:10:09;;;;;;;3.65;1.50;;;22.00;99.90;;;;;;5021672;28;20128;-70
2023/08/14 09:12:35;;;;;;;3.65;1.83;;;22.10;99.90;;;;;;5038964;28;20135;-69
2023/08/14 09:15:06;;;;;;;3.50;1.80;;;22.10;99.90;;;;;;5038130;28;20397;-70
2023/08/14 09:17:32;;;;;;;2.20;1.20;;;22.20;99.90;;;;;;5055248;28;20124;-70
2023/08/14 09:19:58;;;;;;;2.67;1.60;;;22.20;99.90;;;;;;5055611;28;20045;-70
2023/08/14 09:22:27;;;;;;;3.72;1.42;;;22.20;99.90;;;;;;5055324;28;20045;-70
2023/08/14 09:24:55;;;;;;;4.95;1.80;;;22.20;99.90;;;;;;5055493;28;20063;-70
2023/08/14 09:27:22;;;;;;;2.88;1.50;;;22.20;99.90;;;;;;5055470;28;20056;-70
2023/08/14 09:29:52;;;;;;;5.15;1.67;;;22.30;99.90;;;;;;5038143;28;20099;-71
2023/08/14 09:32:23;;;;;;;2.75;1.35;;;22.30;99.90;;;;;;5055411;28;20044;-69
2023/08/14 09:34:55;;;;;;;4.90;1.55;;;22.40;99.90;;;;;;5055767;28;20056;-69
2023/08/14 09:37:21;;;;;;;3.72;1.42;;;22.50;99.90;;;;;;5055734;28;20055;-70
2023/08/14 09:39:47;;;;;;;4.00;1.70;;;22.60;99.90;;;;;;5055228;28;20557;-71
2023/08/14 09:42:12;;;;;;;4.22;1.38;;;22.60;99.90;;;;;;5054729;28;20049;-70
2023/08/14 09:44:38;;;;;;;3.10;1.67;;;22.70;99.90;;;;;;5055235;28;20045;-70
2023/08/14 09:47:04;;;;;;;4.78;1.70;;;22.70;99.90;;;;;;5055348;28;20049;-73
2023/08/14 09:49:30;;;;;;;4.15;1.85;;;22.70;99.90;;;;;;5055151;28;20094;-70
2023/08/14 09:51:57;;;;;;;2.78;1.40;;;22.70;99.90;;;;;;5054519;28;20041;-71
2023/08/14 09:54:31;;;;;;;2.30;1.30;;;22.70;99.90;;;;;;5037018;28;20474;-72
2023/08/14 09:56:59;;;;;;;3.38;1.45;;;22.80;99.90;;;;;;5054642;28;20079;-70
2023/08/14 09:59:25;;;;;;;3.97;1.38;;;22.80;99.90;;;;;;5053465;28;20083;-70
2023/08/14 10:01:53;;;;;;;3.22;1.40;;;22.90;99.90;;;;;;5054206;28;20052;-72
2023/08/14 10:04:22;;;;;;;2.50;1.30;;;23.00;99.90;;;;;;5054532;28;20049;-71
2023/08/14 10:06:49;;;;;;;2.63;1.30;;;23.10;99.90;;;;;;5054718;28;20456;-71
2023/08/14 10:09:15;;;;;;;3.00;1.13;;;23.30;99.90;;;;;;5054396;28;20113;-70
2023/08/14 10:11:43;;;;;;;3.03;1.30;;;23.40;99.90;;;;;;5054197;28;20047;-71
2023/08/14 10:14:13;;;;;;;3.17;1.40;;;23.50;99.90;;;;;;5054002;28;20056;-71
2023/08/14 10:16:40;;;;;;;3.50;1.20;;;23.80;99.90;;;;;;5054160;28;20055;-70
2023/08/14 10:19:13;;;;;;;2.42;1.10;;;23.80;99.90;;;;;;5055260;28;20063;-69
2023/08/14 10:21:42;;;;;;;2.85;1.10;;;23.80;99.90;;;;;;5054392;28;20466;-71
2023/08/14 10:24:11;;;;;;;2.95;1.30;;;23.80;99.90;;;;;;5054257;28;20049;-71
2023/08/14 10:26:37;;;;;;;3.10;1.33;;;23.90;99.90;;;;;;5054255;28;20045;-72
2023/08/14 10:29:03;;;;;;;3.47;1.30;;;23.90;99.90;;;;;;5053541;28;20045;-71
2023/08/14 10:31:30;;;;;;;2.33;1.20;;;23.80;99.90;;;;;;5054039;28;20079;-70
2023/08/14 10:34:00;;;;;;;4.05;1.27;;;23.80;99.90;;;;;;5036260;28;20053;-71
2023/08/14 10:36:30;;;;;;;2.67;1.00;;;23.70;99.90;;;;;;5053973;28;20048;-69
2023/08/14 10:39:09;;;;;;;3.28;1.10;;;23.80;99.90;;;;;;5036183;28;20494;-69
2023/08/14 10:41:35;;;;;;;3.33;1.30;;;23.80;99.90;;;;;;5054196;28;20041;-70
2023/08/14 10:44:09;;;;;;;2.85;1.13;;;23.90;99.90;;;;;;5036386;28;20083;-70
2023/08/14 10:46:36;;;;;;;2.05;0.93;;;24.00;99.90;;;;;;5054541;28;20110;-71
2023/08/14 10:49:02;;;;;;;5.90;1.85;;;24.30;99.90;;;;;;5036320;28;20053;-72
2023/08/14 10:51:31;;;;;;;3.15;1.10;;;24.40;99.90;;;;;;5053815;28;20547;-71
2023/08/14 10:54:14;;;;;;;1.92;1.00;;;24.40;99.90;;;;;;5053867;28;20049;-71
2023/08/14 10:56:56;;;;;;;2.97;1.15;;;24.40;99.90;;;;;;5035799;28;20509;-71
2023/08/14 10:59:26;;;;;;;2.20;1.00;;;24.50;99.90;;;;;;5054584;28;20365;-71
2023/08/14 11:02:10;;;;;;;2.28;0.95;;;24.60;99.90;;;;;;5051714;28;20194;-70
2023/08/14 11:05:16;;;;;;;1.85;0.90;;;24.80;99.90;;;;;;5053923;28;20390;-70
2023/08/14 11:07:56;;;;;;;4.10;1.20;;;25.10;99.90;;;;;;4953594;29;20159;-72
2023/08/14 11:10:25;;;;;;;2.22;0.90;;;25.20;99.90;;;;;;4938010;29;20477;-72
2023/08/14 11:12:51;;;;;;;2.30;1.02;;;25.20;99.90;;;;;;4996397;28;20061;-72
2023/08/14 11:15:19;;;;;;;3.42;1.10;;;25.10;99.90;;;;;;5053467;28;20127;-71
2023/08/14 11:17:46;;;;;;;3.25;1.10;;;25.10;99.90;;;;;;5035826;28;20131;-71
2023/08/14 11:20:12;;;;;;;4.00;1.23;;;24.90;99.90;;;;;;5054201;28;20075;-72
2023/08/14 11:22:38;;;;;;;2.55;1.10;;;24.80;99.90;;;;;;5052413;28;20386;-70
2023/08/14 11:25:05;;;;;;;4.20;1.25;;;24.80;99.90;;;;;;5053425;28;20049;-72
2023/08/14 11:27:31;;;;;;;3.35;1.10;;;24.90;99.90;;;;;;5053612;28;20049;-71
2023/08/14 11:29:56;;;;;;;2.28;1.08;;;24.90;99.90;;;;;;5035441;28;20394;-71
2023/08/14 11:32:22;;;;;;;2.67;1.17;;;24.90;99.90;;;;;;5035494;28;20097;-71
2023/08/14 11:34:49;;;;;;;3.05;1.17;;;24.80;99.90;;;;;;5053345;28;20048;-71
2023/08/14 11:37:15;;;;;;;2.40;1.00;;;24.60;99.90;;;;;;5053284;28;20060;-71
2023/08/14 11:39:42;;;;;;;2.83;1.25;;;24.70;99.90;;;;;;5036458;28;20098;-70
2023/08/14 11:42:09;;;;;;;3.75;1.20;;;24.60;99.90;;;;;;5039508;28;20132;-70
2023/08/14 11:44:34;;;;;;;4.68;1.25;;;24.50;99.90;;;;;;5057300;28;20123;-70
2023/08/14 11:47:02;;;;;;;2.58;1.20;;;24.70;99.90;;;;;;5057797;28;20158;-71
2023/08/14 11:49:30;;;;;;;3.25;1.13;;;24.90;99.90;;;;;;5039438;28;20045;-71
2023/08/14 11:51:56;;;;;;;4.03;1.23;;;25.10;99.90;;;;;;5057056;28;20397;-72
2023/08/14 11:54:22;;;;;;;3.47;1.17;;;25.30;99.90;;;;;;5040309;28;20041;-71
2023/08/14 11:56:48;;;;;;;3.55;1.35;;;25.20;99.90;;;;;;5056784;28;20515;-71
2023/08/14 11:59:16;;;;;;;2.05;1.00;;;24.90;99.90;;;;;;5057208;28;20128;-71
2023/08/14 12:01:41;;;;;;;3.67;1.38;;;24.70;99.90;;;;;;5056516;28;20516;-71
2023/08/14 12:04:07;;;;;;;3.88;1.30;;;24.50;99.90;;;;;;5039294;28;20049;-71
2023/08/14 12:06:34;;;;;;;2.00;1.08;;;24.50;99.90;;;;;;5056854;28;20084;-72
2023/08/14 12:09:00;;;;;;;3.17;1.48;;;24.50;99.90;;;;;;5056857;28;20045;-72
2023/08/14 12:11:27;;;;;;;3.05;1.42;;;24.50;99.90;;;;;;5056825;28;20037;-71
2023/08/14 12:13:53;;;;;;;2.70;1.42;;;24.50;99.90;;;;;;5056399;28;20493;-72
2023/08/14 12:16:23;;;;;;;3.38;1.23;;;24.60;99.90;;;;;;5056639;28;20090;-71
2023/08/14 12:18:49;;;;;;;2.50;1.30;;;24.70;99.90;;;;;;5038937;28;20045;-71
2023/08/14 12:21:16;;;;;;;3.17;1.17;;;24.80;99.90;;;;;;5056516;28;20045;-72
2023/08/14 12:23:46;;;;;;;2.83;1.10;;;24.80;99.90;;;;;;5039106;28;20049;-71
2023/08/14 12:26:13;;;;;;;2.78;1.10;;;24.80;99.90;;;;;;5056607;28;20056;-71
2023/08/14 12:28:40;;;;;;;2.65;1.27;;;25.00;99.90;;;;;;5057045;28;20080;-70
2023/08/14 12:31:06;;;;;;;2.78;1.30;;;25.20;99.90;;;;;;5056375;28;20080;-71
2023/08/14 12:33:31;;;;;;;3.08;1.25;;;25.50;99.90;;;;;;5056163;28;20084;-71
2023/08/14 12:35:57;;;;;;;3.35;1.30;;;25.40;99.90;;;;;;5056057;28;20080;-73
2023/08/14 12:38:23;;;;;;;3.92;1.48;;;25.20;99.90;;;;;;5038544;28;20056;-71
2023/08/14 12:40:49;;;;;;;2.75;1.17;;;25.00;99.90;;;;;;5038342;28;20053;-70
2023/08/14 12:43:14;;;;;;;3.45;1.15;;;24.90;99.90;;;;;;5055884;28;20049;-72
2023/08/14 12:45:42;;;;;;;3.47;1.25;;;24.80;99.90;;;;;;5056076;28;20145;-71